createdAt,value
2018-07-20T00:02:08.739Z,100.00
2018-07-20T00:04:35.061Z,100.00
2018-07-20T00:07:01.376Z,100.00
2018-07-20T00:09:27.697Z,100.00
2018-07-20T00:11:54.009Z,100.00
2018-07-20T00:14:20.320Z,100.00
2018-07-20T00:16:46.667Z,100.00
2018-07-20T00:19:12.947Z,100.00
2018-07-20T00:21:39.265Z,100.00
2018-07-20T00:24:05.608Z,100.00
2018-07-20T00:26:31.967Z,100.00
2018-07-20T00:28:58.280Z,100.00
2018-07-20T00:31:24.640Z,100.00
2018-07-20T00:33:50.977Z,100.00
2018-07-20T00:36:17.297Z,100.00
2018-07-20T00:38:43.612Z,100.00
2018-07-20T00:41:09.936Z,100.00
2018-07-20T00:43:36.252Z,100.00
2018-07-20T00:46:02.566Z,100.00
2018-07-20T00:48:28.879Z,100.00
2018-07-20T00:50:55.196Z,100.00
2018-07-20T00:53:21.507Z,100.00
2018-07-20T00:55:47.825Z,100.00
2018-07-20T00:58:14.141Z,100.00
2018-07-20T01:00:40.458Z,100.00
2018-07-20T01:03:06.793Z,100.00
2018-07-20T01:05:33.260Z,100.00
2018-07-20T01:07:59.473Z,100.00
2018-07-20T01:10:25.908Z,100.00
2018-07-20T01:12:52.198Z,100.00
2018-07-20T01:15:18.532Z,100.00
2018-07-20T01:17:44.848Z,100.00
2018-07-20T01:20:11.170Z,100.00
2018-07-20T01:22:37.482Z,100.00
2018-07-20T01:25:03.799Z,100.00
2018-07-20T01:27:30.108Z,100.00
2018-07-20T01:29:56.467Z,100.00
2018-07-20T01:32:22.776Z,100.00
2018-07-20T01:34:49.093Z,100.00
2018-07-20T01:37:15.425Z,100.00
2018-07-20T01:39:41.738Z,100.00
2018-07-20T01:42:08.056Z,100.00
2018-07-20T01:44:34.389Z,100.00
2018-07-20T01:47:00.762Z,100.00
2018-07-20T01:49:27.072Z,100.00
2018-07-20T01:51:53.384Z,100.00
2018-07-20T01:54:19.699Z,100.00
2018-07-20T01:56:46.019Z,100.00
2018-07-20T01:59:12.329Z,100.00
2018-07-20T02:01:38.650Z,100.00
2018-07-20T02:04:04.965Z,100.00
2018-07-20T02:06:31.284Z,100.00
2018-07-20T02:08:57.600Z,100.00
2018-07-20T02:11:23.923Z,100.00
2018-07-20T02:13:50.284Z,100.00
2018-07-20T02:16:16.598Z,100.00
2018-07-20T02:18:42.914Z,100.00
2018-07-20T02:21:09.244Z,100.00
2018-07-20T02:23:35.570Z,100.00
2018-07-20T02:26:01.887Z,100.00
2018-07-20T02:28:28.204Z,100.00
2018-07-20T02:30:54.529Z,100.00
2018-07-20T02:33:20.842Z,100.00
2018-07-20T02:35:47.203Z,100.00
2018-07-20T02:38:13.514Z,100.00
2018-07-20T02:40:39.840Z,100.00
2018-07-20T02:43:06.155Z,100.00
2018-07-20T02:45:32.514Z,100.00
2018-07-20T02:47:58.830Z,100.00
2018-07-20T02:50:25.140Z,100.00
2018-07-20T02:52:51.450Z,100.00
2018-07-20T02:55:17.773Z,100.00
2018-07-20T02:57:44.091Z,100.00
2018-07-20T03:00:10.447Z,100.00
2018-07-20T03:02:36.805Z,100.00
2018-07-20T03:05:03.130Z,100.00
2018-07-20T03:07:29.447Z,100.00
2018-07-20T03:09:55.762Z,100.00
2018-07-20T03:12:22.173Z,100.00
2018-07-20T03:14:48.496Z,100.00
2018-07-20T03:17:14.818Z,100.00
2018-07-20T03:19:41.138Z,100.00
2018-07-20T03:22:07.451Z,100.00
2018-07-20T03:24:33.769Z,100.00
2018-07-20T03:27:00.084Z,100.00
2018-07-20T03:29:26.397Z,100.00
2018-07-20T03:31:52.714Z,100.00
2018-07-20T03:34:19.030Z,100.00
2018-07-20T03:36:45.373Z,100.00
2018-07-20T03:39:11.737Z,100.00
2018-07-20T03:41:38.057Z,100.00
2018-07-20T03:44:04.366Z,100.00
2018-07-20T03:46:30.689Z,100.00
2018-07-20T03:48:57.043Z,100.00
2018-07-20T03:51:23.318Z,100.00
2018-07-20T03:53:49.636Z,100.00
2018-07-20T03:56:15.995Z,100.00
2018-07-20T03:58:42.312Z,100.00
2018-07-20T04:01:08.629Z,100.00
2018-07-20T04:03:34.932Z,100.00
2018-07-20T04:06:01.245Z,100.00
2018-07-20T04:08:27.551Z,100.00
2018-07-20T04:10:53.864Z,100.00
2018-07-20T04:13:20.178Z,100.00
2018-07-20T04:15:46.489Z,100.00
2018-07-20T04:18:12.800Z,100.00
2018-07-20T04:20:39.114Z,100.00
2018-07-20T04:23:05.429Z,100.00
2018-07-20T04:25:31.744Z,100.00
2018-07-20T04:27:58.063Z,100.00
2018-07-20T04:30:24.381Z,100.00
2018-07-20T04:32:50.699Z,100.00
2018-07-20T04:35:17.019Z,100.00
2018-07-20T04:37:43.331Z,100.00
2018-07-20T04:40:09.654Z,100.00
2018-07-20T04:42:35.966Z,100.00
2018-07-20T04:45:02.287Z,100.00
2018-07-20T04:47:28.607Z,100.00
2018-07-20T04:49:54.972Z,100.00
2018-07-20T04:52:21.273Z,100.00
2018-07-20T04:54:47.616Z,100.00
2018-07-20T04:57:13.980Z,100.00
2018-07-20T04:59:40.297Z,100.00
2018-07-20T05:02:06.624Z,100.00
2018-07-20T05:04:32.939Z,100.00
2018-07-20T05:06:59.248Z,100.00
2018-07-20T05:09:25.561Z,100.00
2018-07-20T05:11:51.876Z,100.00
2018-07-20T05:14:18.196Z,100.00
2018-07-20T05:16:44.563Z,100.00
2018-07-20T05:19:10.877Z,100.00
2018-07-20T05:21:37.198Z,100.00
2018-07-20T05:24:03.519Z,100.00
2018-07-20T05:26:29.832Z,100.00
2018-07-20T05:28:56.152Z,100.00
2018-07-20T05:31:22.469Z,100.00
2018-07-20T05:33:48.784Z,100.00
2018-07-20T05:36:15.096Z,100.00
2018-07-20T05:38:41.409Z,100.00
2018-07-20T05:41:07.721Z,100.00
2018-07-20T05:43:34.038Z,100.00
2018-07-20T05:46:00.353Z,100.00
2018-07-20T05:48:26.664Z,100.00
2018-07-20T05:50:52.978Z,100.00
2018-07-20T05:53:19.323Z,100.00
2018-07-20T05:55:45.607Z,100.00
2018-07-20T05:58:11.925Z,100.00
2018-07-20T06:00:38.245Z,100.00
2018-07-20T06:03:04.610Z,100.00
2018-07-20T06:05:30.940Z,100.00
2018-07-20T06:07:57.232Z,100.00
2018-07-20T06:10:23.558Z,100.00
2018-07-20T06:12:49.872Z,100.00
2018-07-20T06:15:16.184Z,100.00
2018-07-20T06:17:42.498Z,100.00
2018-07-20T06:20:08.821Z,100.00
2018-07-20T06:22:35.128Z,100.00
2018-07-20T06:25:01.453Z,100.00
2018-07-20T06:27:27.761Z,100.00
2018-07-20T06:29:54.071Z,100.00
2018-07-20T06:32:20.382Z,100.00
2018-07-20T06:34:46.698Z,100.00
2018-07-20T06:37:13.015Z,100.00
2018-07-20T06:39:39.335Z,100.00
2018-07-20T06:42:05.652Z,100.00
2018-07-20T06:44:31.989Z,100.00
2018-07-20T06:46:58.307Z,100.00
2018-07-20T06:49:24.616Z,100.00
2018-07-20T06:51:50.939Z,100.00
2018-07-20T06:54:17.255Z,100.00
2018-07-20T06:56:43.601Z,100.00
2018-07-20T06:59:09.914Z,100.00
2018-07-20T07:01:36.235Z,100.00
2018-07-20T07:04:02.609Z,100.00
2018-07-20T07:06:28.927Z,100.00
2018-07-20T07:08:55.252Z,100.00
2018-07-20T07:11:21.566Z,100.00
2018-07-20T07:13:47.885Z,100.00
2018-07-20T07:16:14.215Z,100.00
2018-07-20T07:18:40.575Z,100.00
2018-07-20T07:21:06.924Z,100.00
2018-07-20T07:23:33.326Z,100.00
2018-07-20T07:25:59.652Z,100.00
2018-07-20T07:28:25.919Z,100.00
2018-07-20T07:30:52.228Z,100.00
2018-07-20T07:33:18.570Z,100.00
2018-07-20T07:35:44.914Z,100.00
2018-07-20T07:38:11.220Z,100.00
2018-07-20T07:40:37.540Z,100.00
2018-07-20T07:43:03.875Z,100.00
2018-07-20T07:45:30.190Z,100.00
2018-07-20T07:47:56.507Z,100.00
2018-07-20T07:50:22.834Z,100.00
2018-07-20T07:52:49.156Z,100.00
2018-07-20T07:55:15.473Z,100.00
2018-07-20T07:57:41.882Z,100.00
2018-07-20T08:00:08.188Z,100.00
2018-07-20T08:02:34.512Z,100.00
2018-07-20T08:05:00.836Z,100.00
2018-07-20T08:07:27.170Z,100.00
2018-07-20T08:09:53.548Z,99.43
2018-07-20T08:12:19.796Z,97.93
2018-07-20T08:14:46.122Z,96.32
2018-07-20T08:17:12.430Z,91.70
2018-07-20T08:19:38.740Z,90.07
2018-07-20T08:22:05.048Z,88.61
2018-07-20T08:24:31.364Z,89.71
2018-07-20T08:26:57.683Z,88.53
2018-07-20T08:29:24.064Z,88.71
2018-07-20T08:31:50.349Z,88.30
2018-07-20T08:34:16.668Z,89.38
2018-07-20T08:36:43.059Z,89.79
2018-07-20T08:39:09.368Z,87.13
2018-07-20T08:41:35.685Z,86.52
2018-07-20T08:44:01.996Z,87.33
2018-07-20T08:46:28.380Z,86.89
2018-07-20T08:48:54.626Z,86.15
2018-07-20T08:51:20.940Z,84.83
2018-07-20T08:53:47.253Z,84.57
2018-07-20T08:56:13.572Z,85.47
2018-07-20T08:58:39.888Z,85.29
2018-07-20T09:01:06.221Z,85.77
2018-07-20T09:03:32.564Z,84.64
2018-07-20T09:05:58.852Z,83.73
2018-07-20T09:08:25.177Z,83.89
2018-07-20T09:10:51.488Z,83.02
2018-07-20T09:13:17.799Z,82.67
2018-07-20T09:15:44.117Z,83.30
2018-07-20T09:18:10.424Z,81.47
2018-07-20T09:20:36.849Z,80.67
2018-07-20T09:23:03.050Z,80.34
2018-07-20T09:25:29.376Z,79.42
2018-07-20T09:27:55.719Z,78.54
2018-07-20T09:30:22.001Z,78.70
2018-07-20T09:32:48.312Z,78.39
2018-07-20T09:35:14.620Z,77.33
2018-07-20T09:37:40.935Z,77.07
2018-07-20T09:40:07.245Z,76.31
2018-07-20T09:42:33.559Z,77.06
2018-07-20T09:44:59.868Z,76.47
2018-07-20T09:47:26.224Z,75.77
2018-07-20T09:49:52.531Z,75.07
2018-07-20T09:52:18.849Z,74.51
2018-07-20T09:54:45.189Z,75.23
2018-07-20T09:57:11.499Z,74.93
2018-07-20T09:59:37.847Z,74.67
2018-07-20T10:02:04.122Z,74.44
2018-07-20T10:04:30.431Z,75.44
2018-07-20T10:06:56.740Z,74.86
2018-07-20T10:09:23.053Z,74.79
2018-07-20T10:11:49.364Z,74.59
2018-07-20T10:14:15.679Z,74.38
2018-07-20T10:16:41.989Z,71.96
2018-07-20T10:19:08.351Z,71.43
2018-07-20T10:21:34.623Z,71.91
2018-07-20T10:24:00.931Z,72.81
2018-07-20T10:26:27.246Z,72.03
2018-07-20T10:28:53.555Z,72.69
2018-07-20T10:31:19.886Z,71.27
2018-07-20T10:33:46.231Z,71.15
2018-07-20T10:36:12.558Z,70.79
2018-07-20T10:38:38.863Z,70.60
2018-07-20T10:41:05.176Z,70.16
2018-07-20T10:43:31.485Z,69.72
2018-07-20T10:45:57.790Z,69.41
2018-07-20T10:48:24.103Z,68.93
2018-07-20T10:50:50.423Z,67.84
2018-07-20T10:53:16.735Z,68.90
2018-07-20T10:55:43.085Z,70.30
2018-07-20T10:58:09.436Z,71.09
2018-07-20T11:00:35.755Z,70.92
2018-07-20T11:03:02.070Z,69.48
2018-07-20T11:05:28.443Z,69.32
2018-07-20T11:07:54.769Z,69.20
2018-07-20T11:10:21.075Z,70.02
2018-07-20T11:12:47.399Z,71.16
2018-07-20T11:15:13.703Z,70.18
2018-07-20T11:17:40.064Z,70.07
2018-07-20T11:20:06.375Z,69.55
2018-07-20T11:22:32.684Z,69.40
2018-07-20T11:24:58.996Z,68.04
2018-07-20T11:27:25.315Z,66.85
2018-07-20T11:29:51.631Z,66.01
2018-07-20T11:32:17.944Z,67.93
2018-07-20T11:34:44.281Z,68.00
2018-07-20T11:37:10.575Z,68.25
2018-07-20T11:39:36.887Z,69.56
2018-07-20T11:42:03.206Z,67.40
2018-07-20T11:44:29.522Z,65.99
2018-07-20T11:46:55.847Z,66.08
2018-07-20T11:49:22.182Z,66.06
2018-07-20T11:51:48.513Z,66.55
2018-07-20T11:54:14.823Z,67.69
2018-07-20T11:56:41.149Z,66.65
2018-07-20T11:59:07.471Z,66.54
2018-07-20T12:01:33.830Z,65.88
2018-07-20T12:04:00.140Z,65.60
2018-07-20T12:06:26.457Z,64.90
2018-07-20T12:08:52.779Z,64.64
2018-07-20T12:11:19.094Z,66.62
2018-07-20T12:13:45.425Z,68.06
2018-07-20T12:16:11.743Z,67.19
2018-07-20T12:18:38.065Z,65.90
2018-07-20T12:21:04.381Z,65.58
2018-07-20T12:23:30.697Z,67.59
2018-07-20T12:25:57.020Z,67.29
2018-07-20T12:28:23.327Z,66.61
2018-07-20T12:30:49.650Z,66.09
2018-07-20T12:33:15.970Z,67.48
2018-07-20T12:35:42.287Z,65.55
2018-07-20T12:38:08.595Z,65.66
2018-07-20T12:40:34.909Z,64.51
2018-07-20T12:43:01.233Z,65.36
2018-07-20T12:45:27.555Z,64.52
2018-07-20T12:47:53.868Z,64.07
2018-07-20T12:50:20.212Z,65.60
2018-07-20T12:52:46.505Z,65.54
2018-07-20T12:55:12.825Z,65.15
2018-07-20T12:57:39.139Z,65.98
2018-07-20T13:00:05.496Z,66.84
2018-07-20T13:02:31.808Z,67.73
2018-07-20T13:04:58.118Z,66.94
2018-07-20T13:07:24.427Z,66.24
2018-07-20T13:09:50.737Z,67.38
2018-07-20T13:12:17.062Z,66.90
2018-07-20T13:14:43.365Z,67.60
2018-07-20T13:17:09.690Z,68.05
2018-07-20T13:19:36.018Z,68.28
2018-07-20T13:22:02.345Z,70.35
2018-07-20T13:24:28.655Z,68.29
2018-07-20T13:26:54.974Z,68.31
2018-07-20T13:29:21.297Z,68.39
2018-07-20T13:31:47.607Z,68.29
2018-07-20T13:34:13.915Z,70.39
2018-07-20T13:36:40.224Z,70.01
2018-07-20T13:39:06.535Z,69.65
2018-07-20T13:41:32.884Z,69.18
2018-07-20T13:43:59.198Z,67.97
2018-07-20T13:46:25.519Z,68.52
2018-07-20T13:48:51.868Z,68.85
2018-07-20T13:51:18.181Z,68.92
2018-07-20T13:53:44.494Z,69.34
2018-07-20T13:56:10.807Z,69.36
2018-07-20T13:58:37.117Z,70.34
2018-07-20T14:01:03.435Z,69.31
2018-07-20T14:03:29.749Z,69.86
2018-07-20T14:05:56.065Z,69.18
2018-07-20T14:08:22.382Z,68.99
2018-07-20T14:10:48.703Z,68.90
2018-07-20T14:13:15.015Z,69.25
2018-07-20T14:15:41.334Z,68.60
2018-07-20T14:18:07.654Z,68.41
2018-07-20T14:20:33.958Z,68.82
2018-07-20T14:23:00.284Z,68.33
2018-07-20T14:25:26.595Z,68.18
2018-07-20T14:27:52.909Z,68.96
2018-07-20T14:30:19.218Z,70.16
2018-07-20T14:32:45.576Z,70.48
2018-07-20T14:35:11.898Z,71.01
2018-07-20T14:37:38.213Z,71.24
2018-07-20T14:40:04.556Z,72.28
2018-07-20T14:42:30.846Z,70.79
2018-07-20T14:44:57.165Z,69.88
2018-07-20T14:47:23.491Z,70.80
2018-07-20T14:49:49.813Z,70.45
2018-07-20T14:52:16.153Z,71.40
2018-07-20T14:54:42.499Z,71.45
2018-07-20T14:57:08.808Z,71.56
2018-07-20T14:59:35.125Z,70.56
2018-07-20T15:02:01.451Z,70.93
2018-07-20T15:04:27.760Z,72.01
2018-07-20T15:06:54.086Z,72.68
2018-07-20T15:09:20.379Z,72.15
2018-07-20T15:11:46.690Z,72.53
2018-07-20T15:14:13.002Z,72.65
2018-07-20T15:16:39.381Z,72.01
2018-07-20T15:19:05.690Z,71.35
2018-07-20T15:21:32.009Z,70.94
2018-07-20T15:23:58.319Z,71.61
2018-07-20T15:26:24.644Z,71.10
2018-07-20T15:28:50.955Z,72.15
2018-07-20T15:31:17.321Z,71.65
2018-07-20T15:33:43.639Z,71.49
2018-07-20T15:36:09.908Z,71.17
2018-07-20T15:38:36.223Z,70.82
2018-07-20T15:41:02.577Z,71.71
2018-07-20T15:43:28.886Z,71.35
2018-07-20T15:46:05.769Z,70.81
2018-07-20T15:48:21.627Z,70.75
2018-07-20T15:50:47.934Z,70.12
2018-07-20T15:53:40.779Z,70.35
2018-07-20T15:55:40.561Z,69.71
2018-07-20T15:58:06.889Z,68.77
2018-07-20T16:00:33.201Z,67.56
2018-07-20T16:02:59.516Z,68.86
2018-07-20T16:05:25.835Z,68.87
2018-07-20T16:07:52.157Z,68.84
2018-07-20T16:10:18.467Z,69.28
2018-07-20T16:12:44.818Z,71.45
2018-07-20T16:15:11.146Z,70.98
2018-07-20T16:17:37.468Z,72.04
2018-07-20T16:20:03.804Z,71.19
2018-07-20T16:22:30.129Z,69.11
2018-07-20T16:24:56.499Z,69.51
2018-07-20T16:27:22.841Z,69.49
2018-07-20T16:29:49.174Z,68.05
2018-07-20T16:32:15.502Z,68.65
2018-07-20T16:34:41.821Z,68.75
2018-07-20T16:37:08.151Z,67.95
2018-07-20T16:39:34.464Z,67.27
2018-07-20T16:42:00.812Z,67.44
2018-07-20T16:44:27.124Z,67.80
2018-07-20T16:46:53.442Z,68.22
2018-07-20T16:49:19.749Z,70.66
2018-07-20T16:51:46.060Z,67.21
2018-07-20T16:54:12.375Z,64.88
2018-07-20T16:56:38.686Z,63.59
2018-07-20T16:59:05.042Z,62.96
2018-07-20T17:01:31.317Z,62.81
2018-07-20T17:03:57.672Z,62.23
2018-07-20T17:06:23.999Z,62.21
2018-07-20T17:08:50.352Z,62.16
2018-07-20T17:11:16.707Z,62.40
2018-07-20T17:13:43.021Z,62.41
2018-07-20T17:16:09.331Z,62.15
2018-07-20T17:18:35.651Z,61.97
2018-07-20T17:21:01.971Z,61.94
2018-07-20T17:23:28.283Z,62.03
2018-07-20T17:25:54.602Z,62.12
2018-07-20T17:28:20.919Z,62.10
2018-07-20T17:30:47.236Z,62.08
2018-07-20T17:33:13.552Z,62.11
2018-07-20T17:35:39.943Z,62.26
2018-07-20T17:38:06.260Z,62.03
2018-07-20T17:40:32.599Z,61.96
2018-07-20T17:42:58.916Z,62.10
2018-07-20T17:45:25.234Z,62.15
2018-07-20T17:47:51.543Z,62.31
2018-07-20T17:50:17.903Z,62.51
2018-07-20T17:52:44.218Z,62.70
2018-07-20T17:55:10.535Z,62.90
2018-07-20T17:57:36.852Z,63.01
2018-07-20T18:00:04.811Z,63.45
2018-07-20T18:02:31.123Z,63.59
2018-07-20T18:04:57.451Z,63.83
2018-07-20T18:07:23.768Z,64.16
2018-07-20T18:09:50.099Z,64.32
2018-07-20T18:12:16.427Z,64.65
2018-07-20T18:14:42.739Z,65.28
2018-07-20T18:17:09.067Z,65.18
2018-07-20T18:19:35.384Z,65.30
2018-07-20T18:22:01.752Z,65.29
2018-07-20T18:24:28.063Z,65.36
2018-07-20T18:26:54.482Z,65.49
2018-07-20T18:29:20.742Z,65.69
2018-07-20T18:31:47.060Z,65.96
2018-07-20T18:34:13.416Z,66.07
2018-07-20T18:36:39.736Z,66.19
2018-07-20T18:39:06.049Z,66.49
2018-07-20T18:41:32.421Z,66.51
2018-07-20T18:43:58.744Z,67.66
2018-07-20T18:46:25.067Z,66.78
2018-07-20T18:48:51.379Z,66.87
2018-07-20T18:51:17.710Z,67.05
2018-07-20T18:53:44.025Z,68.67
2018-07-20T18:56:10.345Z,68.00
2018-07-20T18:58:36.650Z,67.75
2018-07-20T19:01:02.991Z,67.85
2018-07-20T19:03:29.298Z,67.95
2018-07-20T19:05:55.614Z,68.11
2018-07-20T19:08:21.927Z,68.36
2018-07-20T19:10:48.256Z,68.49
2018-07-20T19:13:14.567Z,68.36
2018-07-20T19:15:40.886Z,68.52
2018-07-20T19:18:07.214Z,68.54
2018-07-20T19:20:33.537Z,68.43
2018-07-20T19:22:59.909Z,68.76
2018-07-20T19:25:26.219Z,68.56
2018-07-20T19:27:52.533Z,68.44
2018-07-20T19:30:18.866Z,68.35
2018-07-20T19:32:45.201Z,68.18
2018-07-20T19:35:11.499Z,68.33
2018-07-20T19:37:37.808Z,68.67
2018-07-20T19:40:04.122Z,68.45
2018-07-20T19:42:30.484Z,68.07
2018-07-20T19:44:56.800Z,67.66
2018-07-20T19:47:23.107Z,67.83
2018-07-20T19:49:49.433Z,67.67
2018-07-20T19:52:15.732Z,67.60
2018-07-20T19:54:42.062Z,67.43
2018-07-20T19:57:08.374Z,67.31
2018-07-20T19:59:34.680Z,67.24
2018-07-20T20:02:01.016Z,67.02
2018-07-20T20:04:27.331Z,67.04
2018-07-20T20:06:53.694Z,67.41
2018-07-20T20:09:20.007Z,67.55
2018-07-20T20:11:46.338Z,67.74
2018-07-20T20:14:12.688Z,68.06
2018-07-20T20:16:39.024Z,67.93
2018-07-20T20:19:05.357Z,67.85
2018-07-20T20:21:31.727Z,67.90
2018-07-20T20:23:58.035Z,67.90
2018-07-20T20:26:24.361Z,67.82
2018-07-20T20:28:50.700Z,68.40
2018-07-20T20:31:17.013Z,67.75
2018-07-20T20:33:43.328Z,67.83
2018-07-20T20:36:11.964Z,67.95
2018-07-20T20:38:38.296Z,68.04
2018-07-20T20:41:04.623Z,68.23
2018-07-20T20:43:30.950Z,68.03
2018-07-20T20:45:57.295Z,68.14
2018-07-20T20:48:23.614Z,68.31
2018-07-20T20:50:49.985Z,68.42
2018-07-20T20:53:16.312Z,68.25
2018-07-20T20:55:42.624Z,68.08
2018-07-20T20:58:08.970Z,68.16
2018-07-20T21:00:35.319Z,68.22
2018-07-20T21:03:01.650Z,68.20
2018-07-20T21:05:27.966Z,68.19
2018-07-20T21:07:54.434Z,68.24
2018-07-20T21:10:20.746Z,68.16
2018-07-20T21:12:47.131Z,68.11
2018-07-20T21:15:13.445Z,68.25
2018-07-20T21:17:39.759Z,68.05
2018-07-20T21:20:06.083Z,68.27
2018-07-20T21:22:32.431Z,68.12
2018-07-20T21:24:58.791Z,68.13
2018-07-20T21:27:25.102Z,68.24
2018-07-20T21:29:51.457Z,68.43
2018-07-20T21:32:17.774Z,68.46
2018-07-20T21:34:44.099Z,68.52
2018-07-20T21:37:10.408Z,68.58
2018-07-20T21:39:36.730Z,68.50
2018-07-20T21:42:03.043Z,68.60
2018-07-20T21:44:29.363Z,68.51
2018-07-20T21:46:55.682Z,68.38
2018-07-20T21:49:22.006Z,68.29
2018-07-20T21:51:48.321Z,68.26
2018-07-20T21:54:14.628Z,68.13
2018-07-20T21:56:40.976Z,68.12
2018-07-20T21:59:07.291Z,67.96
2018-07-20T22:01:33.606Z,67.88
2018-07-20T22:03:59.916Z,67.86
2018-07-20T22:06:26.234Z,67.95
2018-07-20T22:08:52.568Z,68.10
2018-07-20T22:11:18.885Z,68.05
2018-07-20T22:13:45.251Z,67.94
2018-07-20T22:16:11.567Z,67.86
2018-07-20T22:18:37.885Z,67.96
2018-07-20T22:21:04.199Z,67.74
2018-07-20T22:23:30.503Z,67.45
2018-07-20T22:25:56.811Z,67.38
2018-07-20T22:28:23.119Z,67.40
2018-07-20T22:30:49.447Z,67.33
2018-07-20T22:33:15.761Z,67.25
2018-07-20T22:35:42.076Z,67.13
2018-07-20T22:38:08.388Z,67.18
2018-07-20T22:40:34.695Z,67.08
2018-07-20T22:43:01.009Z,67.09
2018-07-20T22:45:27.322Z,67.24
2018-07-20T22:47:53.630Z,67.03
2018-07-20T22:50:19.944Z,67.15
2018-07-20T22:52:46.253Z,67.01
2018-07-20T22:55:12.576Z,67.14
2018-07-20T22:57:38.887Z,67.03
2018-07-20T23:00:05.327Z,66.87
2018-07-20T23:02:31.636Z,66.52
2018-07-20T23:04:57.943Z,66.40
2018-07-20T23:07:24.251Z,66.35
2018-07-20T23:09:50.562Z,66.33
2018-07-20T23:12:16.932Z,66.00
2018-07-20T23:14:43.249Z,65.81
2018-07-20T23:17:09.556Z,65.65
2018-07-20T23:19:35.879Z,65.69
2018-07-20T23:22:02.237Z,65.86
2018-07-20T23:24:28.554Z,65.70
2018-07-20T23:26:54.871Z,65.57
2018-07-20T23:29:21.243Z,65.51
2018-07-20T23:31:47.514Z,65.54
2018-07-20T23:34:13.825Z,65.54
2018-07-20T23:36:40.143Z,65.67
2018-07-20T23:39:06.499Z,65.70
2018-07-20T23:41:35.746Z,65.73
2018-07-20T23:44:03.081Z,65.69
2018-07-20T23:46:29.567Z,65.49
2018-07-20T23:48:56.133Z,65.49
2018-07-20T23:51:22.467Z,65.17
2018-07-20T23:53:48.786Z,65.03
2018-07-20T23:56:15.113Z,64.65
2018-07-20T23:58:41.440Z,64.37
